createdAt,value
2018-03-18T00:00:51.538Z,20.67
2018-03-18T00:03:19.053Z,19.02
2018-03-18T00:05:46.671Z,20.92
2018-03-18T00:08:14.213Z,21.85
2018-03-18T00:10:41.790Z,16.90
2018-03-18T00:13:09.329Z,17.02
2018-03-18T00:15:36.844Z,17.12
2018-03-18T00:18:04.381Z,19.35
2018-03-18T00:20:31.899Z,20.92
2018-03-18T00:23:00.204Z,18.60
2018-03-18T00:25:27.730Z,22.70
2018-03-18T00:27:56.035Z,17.67
2018-03-18T00:30:23.554Z,24.87
2018-03-18T00:32:51.099Z,17.75
2018-03-18T00:35:18.723Z,20.60
2018-03-18T00:37:46.279Z,15.45
2018-03-18T00:40:13.798Z,19.08
2018-03-18T00:42:42.104Z,21.85
2018-03-18T00:45:09.627Z,22.42
2018-03-18T00:47:37.277Z,15.98
2018-03-18T00:50:04.798Z,20.20
2018-03-18T00:52:32.319Z,21.35
2018-03-18T00:55:00.626Z,19.98
2018-03-18T00:57:28.148Z,24.08
2018-03-18T00:59:55.758Z,21.83
2018-03-18T01:02:23.281Z,22.80
2018-03-18T01:04:51.702Z,22.98
2018-03-18T01:07:19.228Z,20.33
2018-03-18T01:09:47.530Z,32.38
2018-03-18T01:12:15.070Z,23.25
2018-03-18T01:14:42.609Z,27.73
2018-03-18T01:17:10.128Z,20.55
2018-03-18T01:19:37.777Z,23.80
2018-03-18T01:22:05.299Z,20.17
2018-03-18T01:24:33.629Z,25.58
2018-03-18T01:27:01.145Z,31.45
2018-03-18T01:29:29.453Z,24.05
2018-03-18T01:31:56.994Z,27.77
2018-03-18T01:34:24.575Z,22.67
2018-03-18T01:36:52.142Z,21.52
2018-03-18T01:39:19.663Z,27.23
2018-03-18T01:41:47.966Z,22.92
2018-03-18T01:44:15.496Z,64.57
2018-03-18T01:46:43.808Z,23.33
2018-03-18T01:49:11.330Z,23.58
2018-03-18T01:51:39.633Z,24.02
2018-03-18T01:54:07.153Z,29.05
2018-03-18T01:56:34.762Z,24.58
2018-03-18T01:59:02.296Z,21.60
2018-03-18T02:01:29.882Z,23.90
2018-03-18T02:03:57.400Z,16.70
2018-03-18T02:06:25.730Z,29.05
2018-03-18T02:08:53.254Z,24.73
2018-03-18T02:11:21.567Z,22.87
2018-03-18T02:13:49.118Z,32.45
2018-03-18T02:16:16.682Z,30.98
2018-03-18T02:18:44.245Z,29.45
2018-03-18T02:21:11.809Z,29.12
2018-03-18T02:23:39.354Z,26.48
2018-03-18T02:26:06.874Z,29.85
2018-03-18T02:28:35.190Z,27.42
2018-03-18T02:31:02.725Z,24.08
2018-03-18T02:33:31.028Z,23.27
2018-03-18T02:35:58.559Z,24.65
2018-03-18T02:38:26.880Z,24.55
2018-03-18T02:40:54.434Z,21.52
2018-03-18T02:43:21.953Z,27.42
2018-03-18T02:45:50.266Z,23.15
2018-03-18T02:48:17.787Z,22.10
2018-03-18T02:50:46.114Z,23.92
2018-03-18T02:53:13.636Z,26.17
2018-03-18T02:55:41.949Z,30.73
2018-03-18T02:58:09.469Z,27.67
2018-03-18T03:00:37.774Z,23.48
2018-03-18T03:03:05.302Z,25.85
2018-03-18T03:05:33.624Z,29.10
2018-03-18T03:08:01.172Z,23.67
2018-03-18T03:10:28.721Z,28.27
2018-03-18T03:12:56.241Z,39.17
2018-03-18T03:15:23.782Z,25.70
2018-03-18T03:17:51.300Z,26.40
2018-03-18T03:20:18.832Z,24.87
2018-03-18T03:22:46.371Z,25.55
2018-03-18T03:25:13.892Z,19.87
2018-03-18T03:27:41.439Z,23.60
2018-03-18T03:30:09.032Z,29.63
2018-03-18T03:32:36.574Z,31.35
2018-03-18T03:35:04.093Z,27.10
2018-03-18T03:37:31.642Z,26.37
2018-03-18T03:39:59.217Z,24.92
2018-03-18T03:42:26.821Z,27.10
2018-03-18T03:44:54.352Z,32.50
2018-03-18T03:47:22.635Z,21.02
2018-03-18T03:49:50.948Z,30.37
2018-03-18T03:52:18.481Z,20.27
2018-03-18T03:54:46.024Z,27.02
2018-03-18T03:57:14.317Z,30.23
2018-03-18T03:59:41.852Z,32.70
2018-03-18T04:02:09.373Z,21.50
2018-03-18T04:04:37.038Z,19.73
2018-03-18T04:07:04.569Z,21.27
2018-03-18T04:09:32.146Z,23.85
2018-03-18T04:11:59.665Z,22.55
2018-03-18T04:14:27.998Z,21.35
2018-03-18T04:16:55.517Z,21.45
2018-03-18T04:19:23.038Z,25.88
2018-03-18T04:21:50.588Z,24.70
2018-03-18T04:24:18.116Z,27.40
2018-03-18T04:26:45.663Z,25.80
2018-03-18T04:29:13.246Z,25.40
2018-03-18T04:31:40.787Z,23.70
2018-03-18T04:34:08.317Z,21.08
2018-03-18T04:36:36.626Z,23.20
2018-03-18T04:39:04.149Z,23.02
2018-03-18T04:41:31.766Z,17.90
2018-03-18T04:43:59.290Z,20.77
2018-03-18T04:46:27.701Z,22.00
2018-03-18T04:48:55.226Z,23.05
2018-03-18T04:51:23.552Z,27.20
2018-03-18T04:53:51.102Z,19.73
2018-03-18T04:56:18.633Z,23.45
2018-03-18T04:58:46.181Z,20.27
2018-03-18T05:01:14.494Z,21.00
2018-03-18T05:03:42.041Z,21.37
2018-03-18T05:06:09.562Z,16.40
2018-03-18T05:08:37.101Z,14.30
2018-03-18T05:11:04.640Z,17.35
2018-03-18T05:13:32.184Z,25.83
2018-03-18T05:15:59.750Z,22.08
2018-03-18T05:18:27.294Z,19.15
2018-03-18T05:20:54.822Z,20.75
2018-03-18T05:23:22.369Z,22.95
2018-03-18T05:25:49.883Z,16.35
2018-03-18T05:28:17.430Z,22.02
2018-03-18T05:30:44.958Z,22.60
2018-03-18T05:33:12.482Z,19.77
2018-03-18T05:35:40.029Z,17.37
2018-03-18T05:38:07.555Z,20.77
2018-03-18T05:40:35.866Z,26.45
2018-03-18T05:43:03.381Z,26.08
2018-03-18T05:45:31.693Z,24.00
2018-03-18T05:47:59.212Z,25.58
2018-03-18T05:50:26.758Z,21.87
2018-03-18T05:52:54.291Z,22.52
2018-03-18T05:55:21.830Z,17.60
2018-03-18T05:57:49.357Z,24.80
2018-03-18T06:00:16.898Z,19.23
2018-03-18T06:02:44.424Z,19.98
2018-03-18T06:05:12.005Z,18.40
2018-03-18T06:07:39.536Z,15.30
2018-03-18T06:10:07.105Z,21.80
2018-03-18T06:12:34.666Z,17.70
2018-03-18T06:15:02.193Z,20.08
2018-03-18T06:17:30.511Z,19.92
2018-03-18T06:19:58.034Z,15.05
2018-03-18T06:22:26.345Z,18.60
2018-03-18T06:24:53.915Z,14.38
2018-03-18T06:27:21.449Z,18.45
2018-03-18T06:29:48.970Z,19.42
2018-03-18T06:32:16.518Z,17.80
2018-03-18T06:34:44.057Z,14.80
2018-03-18T06:37:11.587Z,23.15
2018-03-18T06:39:39.130Z,17.65
2018-03-18T06:42:07.439Z,17.75
2018-03-18T06:44:34.987Z,17.92
2018-03-18T06:47:02.521Z,22.98
2018-03-18T06:49:30.828Z,23.02
2018-03-18T06:51:58.351Z,18.95
2018-03-18T06:54:25.967Z,20.65
2018-03-18T06:56:53.499Z,17.48
2018-03-18T06:59:21.044Z,18.02
2018-03-18T07:01:49.339Z,19.27
2018-03-18T07:04:16.902Z,22.98
2018-03-18T07:06:44.425Z,19.67
2018-03-18T07:09:11.945Z,14.13
2018-03-18T07:11:39.490Z,15.15
2018-03-18T07:14:07.058Z,18.55
2018-03-18T07:16:34.599Z,19.58
2018-03-18T07:19:02.181Z,16.48
2018-03-18T07:21:29.726Z,15.70
2018-03-18T07:23:57.259Z,18.98
2018-03-18T07:26:25.576Z,16.33
2018-03-18T07:28:53.095Z,28.38
2018-03-18T07:31:21.414Z,16.98
2018-03-18T07:33:48.947Z,16.62
2018-03-18T07:36:17.266Z,22.02
2018-03-18T07:38:44.792Z,18.17
2018-03-18T07:41:12.374Z,17.80
2018-03-18T07:43:39.918Z,18.67
2018-03-18T07:46:07.440Z,14.55
2018-03-18T07:48:34.974Z,16.27
2018-03-18T07:51:02.490Z,18.62
2018-03-18T07:53:30.044Z,18.23
2018-03-18T07:55:58.334Z,16.75
2018-03-18T07:58:25.878Z,15.20
2018-03-18T08:00:54.198Z,14.90
2018-03-18T08:03:21.755Z,18.85
2018-03-18T08:05:49.283Z,19.10
2018-03-18T08:08:17.623Z,15.88
2018-03-18T08:10:45.134Z,17.60
2018-03-18T08:13:12.687Z,17.87
2018-03-18T08:15:40.276Z,16.23
2018-03-18T08:18:07.805Z,16.67
2018-03-18T08:20:35.373Z,21.48
2018-03-18T08:23:02.892Z,14.07
2018-03-18T08:25:30.511Z,14.02
2018-03-18T08:27:58.041Z,15.07
2018-03-18T08:30:26.351Z,15.45
2018-03-18T08:32:53.911Z,19.08
2018-03-18T08:35:21.449Z,14.25
2018-03-18T08:37:48.977Z,15.45
2018-03-18T08:40:17.291Z,14.48
2018-03-18T08:42:44.814Z,17.00
2018-03-18T08:45:12.361Z,16.92
2018-03-18T08:47:39.885Z,16.10
2018-03-18T08:50:07.453Z,15.77
2018-03-18T08:52:35.010Z,13.30
2018-03-18T08:55:02.541Z,11.48
2018-03-18T08:57:30.849Z,13.77
2018-03-18T08:59:59.429Z,16.02
2018-03-18T09:02:28.287Z,15.23
2018-03-18T09:04:57.032Z,14.00
2018-03-18T09:07:25.820Z,18.05
2018-03-18T09:09:53.913Z,15.48
2018-03-18T09:12:21.534Z,13.82
2018-03-18T09:14:49.297Z,12.90
2018-03-18T09:17:17.775Z,20.33
2018-03-18T09:19:45.293Z,11.07
2018-03-18T09:22:13.599Z,13.18
2018-03-18T09:24:41.113Z,20.20
2018-03-18T09:27:08.871Z,14.07
2018-03-18T09:29:36.450Z,11.52
2018-03-18T09:32:03.935Z,12.60
2018-03-18T09:34:31.531Z,13.82
2018-03-18T09:36:59.061Z,10.93
2018-03-18T09:39:26.602Z,14.48
2018-03-18T09:41:54.202Z,14.55
2018-03-18T09:44:21.738Z,17.30
2018-03-18T09:46:49.322Z,10.77
2018-03-18T09:49:18.409Z,14.02
2018-03-18T09:51:45.987Z,12.37
2018-03-18T09:54:13.548Z,11.70
2018-03-18T09:56:41.103Z,11.18
2018-03-18T09:59:08.658Z,11.02
2018-03-18T10:01:36.217Z,12.88
2018-03-18T10:04:03.730Z,14.68
2018-03-18T10:06:31.337Z,13.88
2018-03-18T10:08:58.857Z,12.25
2018-03-18T10:11:27.158Z,9.57
2018-03-18T10:13:54.685Z,11.38
2018-03-18T10:16:22.220Z,14.10
2018-03-18T10:18:49.758Z,13.20
2018-03-18T10:21:17.725Z,8.02
2018-03-18T10:23:46.429Z,10.77
2018-03-18T10:26:13.992Z,10.25
2018-03-18T10:28:42.234Z,15.35
2018-03-18T10:31:09.779Z,10.20
2018-03-18T10:33:37.325Z,9.50
2018-03-18T10:36:05.631Z,14.85
2018-03-18T10:38:33.206Z,15.15
2018-03-18T10:41:00.739Z,13.10
2018-03-18T10:43:29.030Z,12.23
2018-03-18T10:45:56.582Z,13.05
2018-03-18T10:48:24.105Z,13.82
2018-03-18T10:50:51.729Z,11.82
2018-03-18T10:53:19.266Z,10.57
2018-03-18T10:55:46.782Z,11.50
2018-03-18T10:58:14.317Z,9.30
2018-03-18T11:00:43.812Z,10.65
2018-03-18T11:03:11.459Z,11.52
2018-03-18T11:05:38.978Z,10.98
2018-03-18T11:08:07.314Z,11.10
2018-03-18T11:10:34.825Z,11.65
2018-03-18T11:13:03.133Z,12.23
2018-03-18T11:15:30.716Z,17.00
2018-03-18T11:17:58.250Z,14.77
2018-03-18T11:20:25.765Z,12.27
2018-03-18T11:22:53.306Z,11.40
2018-03-18T11:25:20.850Z,12.00
2018-03-18T11:27:48.409Z,10.75
2018-03-18T11:30:15.978Z,11.82
2018-03-18T11:32:43.514Z,9.77
2018-03-18T11:35:11.041Z,10.85
2018-03-18T11:37:38.573Z,10.98
2018-03-18T11:40:06.092Z,16.30
2018-03-18T11:42:33.643Z,10.63
2018-03-18T11:45:01.163Z,10.20
2018-03-18T11:47:28.696Z,13.80
2018-03-18T11:49:56.240Z,12.68
2018-03-18T11:52:23.764Z,12.18
2018-03-18T11:54:52.093Z,10.27
2018-03-18T11:57:19.605Z,7.07
2018-03-18T11:59:47.906Z,13.73
2018-03-18T12:02:15.422Z,14.87
2018-03-18T12:04:42.957Z,12.00
2018-03-18T12:07:10.479Z,10.95
2018-03-18T12:09:38.015Z,8.93
2018-03-18T12:12:05.535Z,12.43
2018-03-18T12:14:33.074Z,13.40
2018-03-18T12:17:00.646Z,13.18
2018-03-18T12:19:28.242Z,9.00
2018-03-18T12:21:55.739Z,11.32
2018-03-18T12:24:24.143Z,11.20
2018-03-18T12:26:51.653Z,9.05
2018-03-18T12:29:19.199Z,11.23
2018-03-18T12:31:46.721Z,7.90
2018-03-18T12:34:14.287Z,8.30
2018-03-18T12:36:41.825Z,9.05
2018-03-18T12:39:09.432Z,13.43
2018-03-18T12:41:36.972Z,11.45
2018-03-18T12:44:04.487Z,10.68
2018-03-18T12:46:32.790Z,8.68
2018-03-18T12:49:00.312Z,10.15
2018-03-18T12:51:27.848Z,10.68
2018-03-18T12:53:55.357Z,9.82
2018-03-18T12:56:23.661Z,9.60
2018-03-18T12:58:51.182Z,7.53
2018-03-18T13:01:19.483Z,10.50
2018-03-18T13:03:47.006Z,10.57
2018-03-18T13:06:14.621Z,10.70
2018-03-18T13:08:42.155Z,14.45
2018-03-18T13:11:09.699Z,11.07
2018-03-18T13:13:37.989Z,11.68
2018-03-18T13:16:06.265Z,9.65
2018-03-18T13:18:34.571Z,10.80
2018-03-18T13:21:02.135Z,12.40
2018-03-18T13:23:29.667Z,9.05
2018-03-18T13:25:57.183Z,8.57
2018-03-18T13:28:24.715Z,13.32
2018-03-18T13:30:53.076Z,12.88
2018-03-18T13:33:20.611Z,9.07
2018-03-18T13:35:48.899Z,10.35
2018-03-18T13:38:17.215Z,12.02
2018-03-18T13:40:44.777Z,14.05
2018-03-18T13:43:12.321Z,6.85
2018-03-18T13:45:39.885Z,11.50
2018-03-18T13:48:07.429Z,11.25
2018-03-18T13:50:34.954Z,8.20
2018-03-18T13:53:02.507Z,14.23
2018-03-18T13:55:30.034Z,10.90
2018-03-18T13:57:57.549Z,9.68
2018-03-18T14:00:25.845Z,11.10
2018-03-18T14:02:53.362Z,5.95
2018-03-18T14:05:20.891Z,7.57
2018-03-18T14:07:48.418Z,11.25
2018-03-18T14:10:16.002Z,12.30
2018-03-18T14:12:43.529Z,8.77
2018-03-18T14:15:11.836Z,12.95
2018-03-18T14:17:39.397Z,8.63
2018-03-18T14:20:07.001Z,7.53
2018-03-18T14:22:34.494Z,10.90
2018-03-18T14:25:02.092Z,9.10
2018-03-18T14:27:29.621Z,10.63
2018-03-18T14:29:57.153Z,9.07
2018-03-18T14:32:25.476Z,16.42
2018-03-18T14:34:53.049Z,7.93
2018-03-18T14:37:20.589Z,10.95
2018-03-18T14:39:48.136Z,9.55
2018-03-18T14:42:15.658Z,12.13
2018-03-18T14:44:43.273Z,10.50
2018-03-18T14:47:10.812Z,9.30
2018-03-18T14:49:38.331Z,10.70
2018-03-18T14:52:05.869Z,9.65
2018-03-18T14:54:33.403Z,8.10
2018-03-18T14:57:00.957Z,10.45
2018-03-18T14:59:28.537Z,8.90
2018-03-18T15:01:56.084Z,10.10
2018-03-18T15:04:23.663Z,11.57
2018-03-18T15:06:51.203Z,9.80
2018-03-18T15:09:18.721Z,9.85
2018-03-18T15:11:46.259Z,11.23
2018-03-18T15:14:13.803Z,8.98
2018-03-18T15:16:41.355Z,17.27
2018-03-18T15:19:08.882Z,8.43
2018-03-18T15:21:37.193Z,14.80
2018-03-18T15:24:04.737Z,11.10
2018-03-18T15:26:32.259Z,9.90
2018-03-18T15:28:59.793Z,8.90
2018-03-18T15:31:27.310Z,8.60
2018-03-18T15:33:54.855Z,17.98
2018-03-18T15:36:23.143Z,9.20
2018-03-18T15:38:50.689Z,6.55
2018-03-18T15:41:18.974Z,8.68
2018-03-18T15:43:47.296Z,11.65
2018-03-18T15:46:14.826Z,10.25
2018-03-18T15:48:42.406Z,8.30
2018-03-18T15:51:09.925Z,9.55
2018-03-18T15:53:38.226Z,8.00
2018-03-18T15:56:05.742Z,8.00
2018-03-18T15:58:33.666Z,7.68
2018-03-18T16:01:01.235Z,11.80
2018-03-18T16:03:28.784Z,8.57
2018-03-18T16:05:56.349Z,7.53
2018-03-18T16:08:24.014Z,7.57
2018-03-18T16:10:51.574Z,9.25
2018-03-18T16:13:19.094Z,9.68
2018-03-18T16:15:46.658Z,11.48
2018-03-18T16:18:14.946Z,6.00
2018-03-18T16:20:42.488Z,6.68
2018-03-18T16:23:10.784Z,7.53
2018-03-18T16:25:39.090Z,10.45
2018-03-18T16:28:06.606Z,8.05
2018-03-18T16:30:46.778Z,9.15
2018-03-18T16:33:14.291Z,9.02
2018-03-18T16:35:41.838Z,12.00
2018-03-18T16:38:09.361Z,8.90
2018-03-18T16:40:36.948Z,9.23
2018-03-18T16:43:04.503Z,9.80
2018-03-18T16:45:32.061Z,7.57
2018-03-18T16:47:59.582Z,5.93
2018-03-18T16:50:27.921Z,7.55
2018-03-18T16:52:55.442Z,9.18
2018-03-18T16:55:22.962Z,12.32
2018-03-18T16:57:50.494Z,5.47
2018-03-18T17:00:18.016Z,8.32
2018-03-18T17:02:45.560Z,8.23
2018-03-18T17:05:13.886Z,8.95
2018-03-18T17:07:41.426Z,6.57
2018-03-18T17:10:08.950Z,9.98
2018-03-18T17:12:36.495Z,10.75
2018-03-18T17:15:04.937Z,8.98
2018-03-18T17:17:33.262Z,5.72
2018-03-18T17:20:00.773Z,9.60
2018-03-18T17:22:28.314Z,15.85
2018-03-18T17:24:55.838Z,6.75
2018-03-18T17:27:23.456Z,8.15
2018-03-18T17:29:50.984Z,7.55
2018-03-18T17:32:19.285Z,6.90
2018-03-18T17:34:46.806Z,6.40
2018-03-18T17:37:15.112Z,10.10
2018-03-18T17:39:42.636Z,8.02
2018-03-18T17:42:10.175Z,6.32
2018-03-18T17:44:49.531Z,9.55
2018-03-18T17:47:28.987Z,8.88
2018-03-18T17:50:09.057Z,10.75
2018-03-18T17:52:48.664Z,9.23
2018-03-18T17:55:26.002Z,7.22
2018-03-18T17:57:53.554Z,10.93
2018-03-18T18:00:21.074Z,7.55
2018-03-18T18:02:48.594Z,10.82
2018-03-18T18:05:16.130Z,5.57
2018-03-18T18:07:43.660Z,7.22
2018-03-18T18:10:11.252Z,6.30
2018-03-18T18:12:38.741Z,8.45
2018-03-18T18:15:06.280Z,5.78
2018-03-18T18:17:33.805Z,11.38
2018-03-18T18:20:02.127Z,6.70
2018-03-18T18:22:29.647Z,13.93
2018-03-18T18:24:57.954Z,8.27
2018-03-18T18:27:25.519Z,11.15
2018-03-18T18:29:53.187Z,9.52
2018-03-18T18:32:20.747Z,8.23
2018-03-18T18:34:48.306Z,6.95
2018-03-18T18:37:15.829Z,7.50
2018-03-18T18:39:44.148Z,8.45
2018-03-18T18:42:11.669Z,7.32
2018-03-18T18:44:39.953Z,8.32
2018-03-18T18:47:08.259Z,9.80
2018-03-18T18:49:35.787Z,7.60
2018-03-18T18:52:04.094Z,9.05
2018-03-18T18:54:31.615Z,10.38
2018-03-18T18:56:59.917Z,6.93
2018-03-18T18:59:27.439Z,6.75
2018-03-18T19:01:54.982Z,9.07
2018-03-18T19:04:22.509Z,12.63
2018-03-18T19:06:50.045Z,7.72
2018-03-18T19:09:17.574Z,10.07
2018-03-18T19:11:45.113Z,14.18
2018-03-18T19:14:12.641Z,10.60
2018-03-18T19:16:40.188Z,7.28
2018-03-18T19:19:07.721Z,11.88
2018-03-18T19:21:35.238Z,9.95
2018-03-18T19:24:02.773Z,7.07
2018-03-18T19:26:30.294Z,12.18
2018-03-18T19:28:57.912Z,8.98
2018-03-18T19:31:25.438Z,10.85
2018-03-18T19:33:53.747Z,8.48
2018-03-18T19:36:21.269Z,7.45
2018-03-18T19:38:49.573Z,8.40
2018-03-18T19:41:17.096Z,7.35
2018-03-18T19:43:44.630Z,9.40
2018-03-18T19:46:12.153Z,8.38
2018-03-18T19:48:39.723Z,10.40
2018-03-18T19:51:07.247Z,12.35
2018-03-18T19:53:35.558Z,12.63
2018-03-18T19:56:03.082Z,9.98
2018-03-18T19:58:31.395Z,10.77
2018-03-18T20:00:58.958Z,11.45
2018-03-18T20:03:26.497Z,8.60
2018-03-18T20:05:54.022Z,10.23
2018-03-18T20:08:21.567Z,7.70
2018-03-18T20:10:49.092Z,10.38
2018-03-18T20:13:16.630Z,10.98
2018-03-18T20:15:44.150Z,8.15
2018-03-18T20:18:11.691Z,14.00
2018-03-18T20:20:39.215Z,10.20
2018-03-18T20:23:06.794Z,9.18
2018-03-18T20:25:34.306Z,9.45
2018-03-18T20:28:01.830Z,8.85
2018-03-18T20:30:29.379Z,13.27
2018-03-18T20:32:57.811Z,8.60
2018-03-18T20:35:26.124Z,13.55
2018-03-18T20:37:53.657Z,13.23
2018-03-18T20:40:21.981Z,10.30
2018-03-18T20:42:49.498Z,10.85
2018-03-18T20:45:17.903Z,10.80
2018-03-18T20:47:45.419Z,7.97
2018-03-18T20:50:13.034Z,13.50
2018-03-18T20:52:40.590Z,13.00
2018-03-18T20:55:08.125Z,10.15
2018-03-18T20:57:35.650Z,12.73
2018-03-18T21:00:03.273Z,16.90
2018-03-18T21:02:30.834Z,12.85
2018-03-18T21:04:58.367Z,11.40
2018-03-18T21:07:25.954Z,11.82
2018-03-18T21:09:53.473Z,9.73
2018-03-18T21:12:21.778Z,11.73
2018-03-18T21:14:49.297Z,12.45
2018-03-18T21:17:16.834Z,7.03
2018-03-18T21:19:44.362Z,7.18
2018-03-18T21:22:11.931Z,10.05
2018-03-18T21:24:39.491Z,9.10
2018-03-18T21:27:07.040Z,12.00
2018-03-18T21:29:34.607Z,10.50
2018-03-18T21:32:02.144Z,10.23
2018-03-18T21:34:38.616Z,8.45
2018-03-18T21:37:06.155Z,13.70
2018-03-18T21:39:34.451Z,10.00
2018-03-18T21:42:02.000Z,10.32
2018-03-18T21:44:30.298Z,14.82
2018-03-18T21:46:57.823Z,12.48
2018-03-18T21:49:25.357Z,7.57
2018-03-18T21:51:52.875Z,8.48
2018-03-18T21:54:20.458Z,12.05
2018-03-18T21:56:48.019Z,10.35
2018-03-18T21:59:15.559Z,7.97
2018-03-18T22:01:43.078Z,18.12
2018-03-18T22:04:10.627Z,21.65
2018-03-18T22:06:38.150Z,11.23
2018-03-18T22:09:05.690Z,17.25
2018-03-18T22:11:33.273Z,10.07
2018-03-18T22:14:00.812Z,9.93
2018-03-18T22:16:28.331Z,11.80
2018-03-18T22:18:57.399Z,9.18
2018-03-18T22:21:24.928Z,10.93
2018-03-18T22:23:52.454Z,10.45
2018-03-18T22:26:20.002Z,12.73
2018-03-18T22:28:47.534Z,15.38
2018-03-18T22:31:15.097Z,12.40
2018-03-18T22:33:42.654Z,14.23
2018-03-18T22:36:10.199Z,14.93
2018-03-18T22:38:37.727Z,11.35
2018-03-18T22:41:06.066Z,11.60
2018-03-18T22:43:33.582Z,7.80
2018-03-18T22:46:01.127Z,12.65
2018-03-18T22:48:29.442Z,13.93
2018-03-18T22:50:56.986Z,14.85
2018-03-18T22:53:24.513Z,11.43
2018-03-18T22:55:52.049Z,13.70
2018-03-18T22:58:19.588Z,9.95
2018-03-18T23:00:47.133Z,13.80
2018-03-18T23:03:14.649Z,11.73
2018-03-18T23:05:42.194Z,8.32
2018-03-18T23:08:09.714Z,10.10
2018-03-18T23:10:37.237Z,9.45
2018-03-18T23:13:05.556Z,15.00
2018-03-18T23:15:33.073Z,11.25
2018-03-18T23:18:01.402Z,19.55
2018-03-18T23:20:28.923Z,12.80
2018-03-18T23:22:57.233Z,14.38
2018-03-18T23:25:24.749Z,11.15
2018-03-18T23:27:53.053Z,10.20
2018-03-18T23:30:20.627Z,11.18
2018-03-18T23:32:48.166Z,9.52
2018-03-18T23:35:15.682Z,12.10
2018-03-18T23:37:43.243Z,11.85
2018-03-18T23:40:10.762Z,15.35
2018-03-18T23:42:38.336Z,12.82
2018-03-18T23:45:06.612Z,14.73
2018-03-18T23:47:34.162Z,11.52
2018-03-18T23:50:01.728Z,10.23
2018-03-18T23:52:29.255Z,12.60
2018-03-18T23:54:57.569Z,12.85
2018-03-18T23:57:25.126Z,11.15
2018-03-18T23:59:52.666Z,8.63
